createdAt,value
2022-09-20T00:00:13.790Z,9.69
2022-09-20T00:02:42.131Z,9.69
2022-09-20T00:05:13.291Z,9.62
2022-09-20T00:07:44.733Z,9.17
2022-09-20T00:10:18.009Z,9.59
2022-09-20T00:12:46.544Z,9.22
2022-09-20T00:15:18.483Z,9.19
2022-09-20T00:17:54.847Z,9.69
2022-09-20T00:20:24.617Z,9.55
2022-09-20T00:22:56.513Z,8.90
2022-09-20T00:25:27.779Z,9.40
2022-09-20T00:28:01.363Z,9.51
2022-09-20T00:30:41.558Z,9.25
2022-09-20T00:33:10.315Z,9.76
2022-09-20T00:35:37.780Z,9.68
2022-09-20T00:38:10.657Z,9.76
2022-09-20T00:40:39.175Z,9.71
2022-09-20T00:43:08.892Z,9.59
2022-09-20T00:45:39.445Z,9.39
2022-09-20T00:48:22.784Z,9.80
2022-09-20T00:50:57.787Z,9.35
2022-09-20T00:53:33.818Z,9.82
2022-09-20T00:56:08.726Z,9.82
2022-09-20T00:58:43.175Z,9.64
2022-09-20T01:01:15.360Z,9.59
2022-09-20T01:03:48.504Z,9.81
2022-09-20T01:06:19.451Z,9.61
2022-09-20T01:08:50.392Z,9.68
2022-09-20T01:11:20.736Z,9.84
2022-09-20T01:13:52.335Z,9.84
2022-09-20T01:16:28.083Z,9.63
2022-09-20T01:19:04.497Z,9.79
2022-09-20T01:21:36.613Z,9.77
2022-09-20T01:24:11.128Z,9.78
2022-09-20T01:27:05.883Z,9.76
2022-09-20T01:29:52.641Z,9.66
2022-09-20T01:32:24.310Z,9.63
2022-09-20T01:35:00.308Z,9.64
2022-09-20T01:37:32.412Z,9.47
2022-09-20T01:40:10.898Z,9.55
2022-09-20T01:42:43.450Z,9.49
2022-09-20T01:45:20.555Z,9.41
2022-09-20T01:47:56.619Z,9.29
2022-09-20T01:50:38.304Z,9.16
2022-09-20T01:53:37.870Z,9.25
2022-09-20T01:56:51.955Z,9.17
2022-09-20T01:59:52.352Z,9.19
2022-09-20T02:03:03.237Z,9.39
2022-09-20T02:05:53.154Z,9.37
2022-09-20T02:08:38.136Z,9.36
2022-09-20T02:11:12.888Z,9.35
2022-09-20T02:14:03.192Z,9.02
2022-09-20T02:16:46.600Z,9.11
2022-09-20T02:19:39.995Z,9.30
2022-09-20T02:22:21.161Z,9.35
2022-09-20T02:24:59.417Z,9.39
2022-09-20T02:27:34.779Z,9.47
2022-09-20T02:30:20.919Z,9.52
2022-09-20T02:33:12.720Z,9.49
2022-09-20T02:35:56.328Z,9.60
2022-09-20T02:38:39.926Z,9.53
2022-09-20T02:41:37.441Z,9.61
2022-09-20T02:44:12.371Z,9.45
2022-09-20T02:46:49.656Z,9.43
2022-09-20T02:49:25.353Z,9.73
2022-09-20T02:52:01.818Z,9.26
2022-09-20T02:54:37.758Z,9.76
2022-09-20T02:57:14.851Z,9.76
2022-09-20T02:59:49.738Z,9.80
2022-09-20T03:02:30.795Z,9.70
2022-09-20T03:05:11.833Z,9.63
2022-09-20T03:07:49.841Z,9.63
2022-09-20T03:10:26.749Z,9.84
2022-09-20T03:13:07.290Z,9.82
2022-09-20T03:15:46.856Z,9.70
2022-09-20T03:18:19.982Z,9.56
2022-09-20T03:20:58.718Z,9.62
2022-09-20T03:23:41.908Z,9.86
2022-09-20T03:26:25.819Z,9.78
2022-09-20T03:29:06.741Z,9.45
2022-09-20T03:31:57.543Z,9.80
2022-09-20T03:34:42.893Z,9.86
2022-09-20T03:37:23.998Z,9.64
2022-09-20T03:40:32.058Z,9.70
2022-09-20T03:43:06.962Z,9.66
2022-09-20T03:46:02.717Z,9.41
2022-09-20T03:49:32.922Z,9.80
2022-09-20T03:52:07.745Z,9.70
2022-09-20T03:54:48.084Z,9.70
2022-09-20T03:57:33.622Z,9.23
2022-09-20T04:00:27.385Z,9.62
2022-09-20T04:03:33.528Z,9.59
2022-09-20T04:06:45.529Z,9.44
2022-09-20T04:09:32.963Z,9.52
2022-09-20T04:12:09.434Z,9.52
2022-09-20T04:14:47.801Z,9.55
2022-09-20T04:17:30.932Z,9.63
2022-09-20T04:20:06.488Z,9.67
2022-09-20T04:22:37.227Z,9.39
2022-09-20T04:25:13.860Z,9.63
2022-09-20T04:27:57.541Z,9.82
2022-09-20T04:30:32.073Z,9.94
2022-09-20T04:33:07.515Z,9.80
2022-09-20T04:36:02.586Z,9.98
2022-09-20T04:38:34.338Z,10.03
2022-09-20T04:41:32.631Z,10.10
2022-09-20T04:44:27.881Z,10.10
2022-09-20T04:47:15.033Z,10.00
2022-09-20T04:50:26.505Z,9.90
2022-09-20T04:53:39.006Z,9.91
2022-09-20T04:56:19.203Z,9.59
2022-09-20T04:59:06.016Z,9.90
2022-09-20T05:02:08.254Z,9.93
2022-09-20T05:05:12.548Z,10.06
2022-09-20T05:08:22.769Z,10.10
2022-09-20T05:11:32.249Z,9.94
2022-09-20T05:14:32.334Z,10.01
2022-09-20T05:17:19.655Z,9.84
2022-09-20T05:20:02.768Z,9.94
2022-09-20T05:22:55.419Z,10.15
2022-09-20T05:25:52.027Z,9.73
2022-09-20T05:28:25.460Z,10.28
2022-09-20T05:31:04.567Z,10.09
2022-09-20T05:33:42.089Z,10.40
2022-09-20T05:36:20.596Z,10.24
2022-09-20T05:38:56.379Z,10.45
2022-09-20T05:41:33.428Z,10.39
2022-09-20T05:44:15.456Z,10.07
2022-09-20T05:47:05.585Z,10.64
2022-09-20T05:49:48.384Z,10.78
2022-09-20T05:52:38.478Z,10.78
2022-09-20T05:55:55.058Z,10.91
2022-09-20T05:58:58.022Z,10.93
2022-09-20T06:01:44.271Z,10.98
2022-09-20T06:04:41.556Z,10.99
2022-09-20T06:07:24.598Z,10.94
2022-09-20T06:10:21.134Z,10.95
2022-09-20T06:13:11.717Z,10.27
2022-09-20T06:15:46.043Z,10.30
2022-09-20T06:18:26.456Z,10.63
2022-09-20T06:21:05.987Z,10.81
2022-09-20T06:23:36.434Z,10.88
2022-09-20T06:26:09.099Z,11.10
2022-09-20T06:28:43.660Z,11.24
2022-09-20T06:31:23.686Z,11.64
2022-09-20T06:33:57.829Z,11.45
2022-09-20T06:36:44.911Z,11.72
2022-09-20T06:39:58.950Z,11.42
2022-09-20T06:42:35.781Z,10.99
2022-09-20T06:45:04.383Z,11.41
2022-09-20T06:47:39.271Z,11.48
2022-09-20T06:50:08.336Z,11.55
2022-09-20T06:52:41.979Z,11.41
2022-09-20T06:55:26.055Z,11.72
2022-09-20T06:58:00.630Z,11.91
2022-09-20T07:00:29.192Z,12.03
2022-09-20T07:03:02.874Z,12.21
2022-09-20T07:05:31.466Z,11.86
2022-09-20T07:08:01.476Z,12.26
2022-09-20T07:10:38.403Z,11.91
2022-09-20T07:13:12.472Z,11.96
2022-09-20T07:15:51.949Z,12.06
2022-09-20T07:18:25.649Z,12.09
2022-09-20T07:21:01.506Z,11.95
2022-09-20T07:23:31.471Z,12.20
2022-09-20T07:26:04.577Z,11.80
2022-09-20T07:28:46.005Z,12.20
2022-09-20T07:31:20.113Z,12.11
2022-09-20T07:33:52.328Z,12.40
2022-09-20T07:36:22.137Z,12.39
2022-09-20T07:38:56.209Z,12.47
2022-09-20T07:41:32.700Z,12.58
2022-09-20T07:44:21.051Z,12.23
2022-09-20T07:46:52.375Z,12.81
2022-09-20T07:49:25.002Z,12.33
2022-09-20T07:51:57.426Z,12.82
2022-09-20T07:54:27.753Z,12.86
2022-09-20T07:56:59.690Z,12.73
2022-09-20T07:59:28.110Z,12.64
2022-09-20T08:02:00.712Z,12.41
2022-09-20T08:04:29.423Z,13.17
2022-09-20T08:07:03.460Z,12.88
2022-09-20T08:09:37.009Z,12.77
2022-09-20T08:14:57.791Z,13.14
2022-09-20T08:17:26.610Z,12.93
2022-09-20T08:19:59.257Z,12.76
2022-09-20T08:22:31.675Z,13.02
2022-09-20T08:25:03.522Z,12.79
2022-09-20T08:27:39.251Z,12.67
2022-09-20T08:30:09.334Z,12.76
2022-09-20T08:32:43.087Z,13.27
2022-09-20T08:35:14.739Z,13.47
2022-09-20T08:37:48.329Z,13.35
2022-09-20T08:40:25.675Z,12.99
2022-09-20T08:43:13.158Z,13.66
2022-09-20T08:45:42.162Z,13.63
2022-09-20T08:48:21.959Z,13.24
2022-09-20T08:50:55.187Z,13.62
2022-09-20T08:53:29.141Z,13.90
2022-09-20T08:56:02.850Z,13.23
2022-09-20T08:58:32.732Z,13.54
2022-09-20T09:01:05.733Z,13.97
2022-09-20T09:03:35.073Z,14.00
2022-09-20T09:06:18.373Z,13.79
2022-09-20T09:08:52.384Z,14.15
2022-09-20T09:11:23.644Z,13.94
2022-09-20T09:14:01.309Z,14.44
2022-09-20T09:16:35.427Z,14.39
2022-09-20T09:19:36.301Z,14.27
2022-09-20T09:22:07.494Z,14.26
2022-09-20T09:24:45.035Z,14.31
2022-09-20T09:27:19.876Z,14.35
2022-09-20T09:29:57.144Z,14.50
2022-09-20T09:32:33.881Z,14.49
2022-09-20T09:35:26.439Z,14.37
2022-09-20T09:38:06.356Z,14.66
2022-09-20T09:40:36.724Z,13.72
2022-09-20T09:43:12.496Z,13.95
2022-09-20T09:45:44.864Z,14.15
2022-09-20T09:48:20.938Z,14.11
2022-09-20T09:50:54.341Z,13.95
2022-09-20T09:53:26.016Z,13.99
2022-09-20T09:56:14.148Z,13.75
2022-09-20T09:59:09.133Z,13.73
2022-09-20T10:01:50.779Z,13.37
2022-09-20T10:04:22.223Z,13.61
2022-09-20T10:06:57.630Z,13.62
2022-09-20T10:09:39.252Z,13.61
2022-09-20T10:12:33.388Z,13.72
2022-09-20T10:15:13.801Z,13.77
2022-09-20T10:18:00.778Z,13.88
2022-09-20T10:20:45.885Z,13.92
2022-09-20T10:24:03.136Z,14.04
2022-09-20T10:26:59.966Z,14.06
2022-09-20T10:29:39.317Z,14.13
2022-09-20T10:32:17.494Z,13.99
2022-09-20T10:35:07.372Z,13.29
2022-09-20T10:37:51.271Z,13.97
2022-09-20T10:40:51.095Z,13.81
2022-09-20T10:43:38.541Z,13.69
2022-09-20T10:46:31.925Z,13.63
2022-09-20T10:49:13.819Z,13.57
2022-09-20T10:52:02.089Z,13.50
2022-09-20T10:54:39.364Z,13.41
2022-09-20T10:57:26.614Z,13.39
2022-09-20T11:00:12.248Z,13.14
2022-09-20T11:02:55.673Z,13.20
2022-09-20T11:05:42.226Z,13.00
2022-09-20T11:08:19.025Z,13.17
2022-09-20T11:11:08.081Z,12.80
2022-09-20T11:13:49.109Z,13.25
2022-09-20T11:16:23.868Z,12.78
2022-09-20T11:18:59.404Z,12.91
2022-09-20T11:21:38.579Z,13.24
2022-09-20T11:24:21.054Z,13.27
2022-09-20T11:26:53.359Z,13.21
2022-09-20T11:29:33.675Z,13.20
2022-09-20T11:32:07.858Z,13.20
2022-09-20T11:34:49.568Z,13.21
2022-09-20T11:37:19.339Z,13.15
2022-09-20T11:39:56.994Z,13.06
2022-09-20T11:42:35.574Z,13.14
2022-09-20T11:45:04.552Z,13.17
2022-09-20T11:47:54.624Z,12.51
2022-09-20T11:51:03.965Z,13.36
2022-09-20T11:53:45.090Z,13.34
2022-09-20T11:56:23.540Z,12.94
2022-09-20T11:58:56.051Z,12.92
2022-09-20T12:01:32.696Z,12.81
2022-09-20T12:04:32.328Z,13.01
2022-09-20T12:07:20.942Z,12.92
2022-09-20T12:09:57.514Z,12.85
2022-09-20T12:12:39.491Z,12.76
2022-09-20T12:15:27.898Z,12.77
2022-09-20T12:18:47.522Z,12.81
2022-09-20T12:21:24.311Z,12.35
2022-09-20T12:24:26.097Z,12.81
2022-09-20T12:27:00.795Z,12.20
2022-09-20T12:30:17.105Z,12.82
2022-09-20T12:32:52.135Z,12.56
2022-09-20T12:36:00.232Z,13.07
2022-09-20T12:38:37.750Z,13.04
2022-09-20T12:41:10.110Z,12.88
2022-09-20T12:43:47.778Z,12.95
2022-09-20T12:46:25.741Z,12.74
2022-09-20T12:49:39.550Z,12.88
2022-09-20T12:52:40.757Z,12.54
2022-09-20T12:55:11.446Z,12.60
2022-09-20T12:57:41.044Z,12.55
2022-09-20T13:00:31.299Z,12.17
2022-09-20T13:03:02.066Z,12.42
2022-09-20T13:05:38.314Z,12.51
2022-09-20T13:08:20.431Z,12.29
2022-09-20T13:10:52.032Z,11.84
2022-09-20T13:13:35.159Z,11.42
2022-09-20T13:16:06.108Z,11.31
2022-09-20T13:18:36.294Z,11.11
2022-09-20T13:21:08.721Z,10.97
2022-09-20T13:23:47.938Z,10.87
2022-09-20T13:26:17.276Z,10.93
2022-09-20T13:28:49.320Z,10.37
2022-09-20T13:31:40.992Z,10.50
2022-09-20T13:34:23.382Z,10.51
2022-09-20T13:36:56.615Z,10.51
2022-09-20T13:39:30.584Z,10.43
2022-09-20T13:42:07.152Z,10.31
2022-09-20T13:44:37.446Z,10.59
2022-09-20T13:47:23.486Z,10.75
2022-09-20T13:49:51.987Z,10.91
2022-09-20T13:52:32.942Z,10.88
2022-09-20T13:55:01.379Z,11.30
2022-09-20T13:57:31.743Z,11.42
2022-09-20T14:00:04.751Z,11.44
2022-09-20T14:02:40.592Z,10.96
2022-09-20T14:05:17.268Z,11.06
2022-09-20T14:07:48.271Z,11.07
2022-09-20T14:10:50.380Z,11.19
2022-09-20T14:13:20.104Z,10.86
2022-09-20T14:15:49.496Z,11.07
2022-09-20T14:18:20.160Z,10.97
2022-09-20T14:20:49.201Z,11.10
2022-09-20T14:23:24.313Z,11.17
2022-09-20T14:26:19.104Z,11.15
2022-09-20T14:28:48.286Z,11.17
2022-09-20T14:31:18.691Z,11.14
2022-09-20T14:33:54.948Z,11.10
2022-09-20T14:36:25.604Z,11.10
2022-09-20T14:38:56.938Z,11.07
2022-09-20T14:41:30.116Z,10.98
2022-09-20T14:44:00.552Z,11.03
2022-09-20T14:46:35.980Z,11.10
2022-09-20T14:49:30.793Z,11.15
2022-09-20T14:52:45.472Z,10.93
2022-09-20T14:55:36.959Z,11.23
2022-09-20T14:58:09.738Z,11.11
2022-09-20T15:00:50.164Z,10.90
2022-09-20T15:03:25.748Z,11.34
2022-09-20T15:05:54.183Z,11.07
2022-09-20T15:08:23.644Z,10.86
2022-09-20T15:10:53.706Z,11.29
2022-09-20T15:13:22.245Z,11.22
2022-09-20T15:15:52.348Z,11.22
2022-09-20T15:18:23.189Z,10.76
2022-09-20T15:20:52.047Z,11.14
2022-09-20T15:23:20.555Z,11.11
2022-09-20T15:25:51.908Z,10.60
2022-09-20T15:28:22.238Z,10.78
2022-09-20T15:30:53.677Z,10.52
2022-09-20T15:33:23.242Z,10.14
2022-09-20T15:35:51.827Z,10.53
2022-09-20T15:38:20.646Z,10.50
2022-09-20T15:40:50.134Z,10.43
2022-09-20T15:43:22.057Z,10.61
2022-09-20T15:45:53.573Z,10.47
2022-09-20T15:48:24.131Z,10.53
2022-09-20T15:51:02.061Z,10.53
2022-09-20T15:53:34.394Z,10.44
2022-09-20T15:56:04.549Z,10.55
2022-09-20T15:58:36.178Z,10.41
2022-09-20T16:01:08.661Z,10.40
2022-09-20T16:03:37.851Z,10.55
2022-09-20T16:06:08.689Z,10.56
2022-09-20T16:08:38.530Z,10.58
2022-09-20T16:11:09.055Z,10.31
2022-09-20T16:13:39.826Z,10.65
2022-09-20T16:16:13.183Z,10.66
2022-09-20T16:18:59.204Z,10.67
2022-09-20T16:21:27.694Z,10.73
2022-09-20T16:23:58.830Z,10.45
2022-09-20T16:26:33.783Z,10.48
2022-09-20T16:29:05.048Z,10.75
2022-09-20T16:31:40.255Z,10.77
2022-09-20T16:34:14.501Z,10.34
2022-09-20T16:36:45.981Z,10.80
2022-09-20T16:39:20.756Z,10.80
2022-09-20T16:42:07.805Z,10.61
2022-09-20T16:44:43.227Z,10.71
2022-09-20T16:47:18.467Z,10.04
2022-09-20T16:49:54.498Z,10.82
2022-09-20T16:52:23.034Z,10.81
2022-09-20T16:54:51.791Z,10.70
2022-09-20T16:57:23.619Z,10.75
2022-09-20T16:59:56.127Z,10.75
2022-09-20T17:02:31.288Z,10.72
2022-09-20T17:05:10.345Z,10.24
2022-09-20T17:07:47.081Z,10.32
2022-09-20T17:10:25.008Z,10.34
2022-09-20T17:12:57.749Z,10.58
2022-09-20T17:15:26.372Z,10.36
2022-09-20T17:17:59.022Z,10.53
2022-09-20T17:20:34.151Z,10.48
2022-09-20T17:23:08.220Z,10.35
2022-09-20T17:25:39.504Z,10.45
2022-09-20T17:28:15.529Z,10.24
2022-09-20T17:30:49.341Z,10.31
2022-09-20T17:33:24.690Z,10.03
2022-09-20T17:35:53.203Z,10.07
2022-09-20T17:38:27.519Z,9.95
2022-09-20T17:41:03.363Z,9.93
2022-09-20T17:43:36.369Z,9.33
2022-09-20T17:46:13.748Z,9.77
2022-09-20T17:48:49.637Z,9.34
2022-09-20T17:51:27.723Z,8.94
2022-09-20T17:53:59.424Z,9.32
2022-09-20T17:56:29.606Z,8.98
2022-09-20T17:59:04.044Z,9.22
2022-09-20T18:01:40.481Z,9.36
2022-09-20T18:04:13.960Z,9.32
2022-09-20T18:06:47.092Z,9.27
2022-09-20T18:09:25.061Z,9.10
2022-09-20T18:11:56.966Z,9.01
2022-09-20T18:14:27.705Z,8.72
2022-09-20T18:20:13.154Z,8.95
2022-09-20T18:22:43.871Z,8.99
2022-09-20T18:25:18.518Z,8.84
2022-09-20T18:27:47.982Z,8.72
2022-09-20T18:30:21.780Z,8.82
2022-09-20T18:32:52.824Z,8.64
2022-09-20T18:35:27.868Z,8.71
2022-09-20T18:37:59.124Z,8.30
2022-09-20T18:40:32.253Z,8.25
2022-09-20T18:43:04.999Z,8.32
2022-09-20T18:45:34.930Z,8.46
2022-09-20T18:48:04.206Z,8.41
2022-09-20T18:50:36.465Z,8.25
2022-09-20T18:53:05.050Z,8.31
2022-09-20T18:55:34.653Z,8.26
2022-09-20T18:58:06.947Z,8.23
2022-09-20T19:00:38.026Z,7.85
2022-09-20T19:03:10.498Z,8.16
2022-09-20T19:05:48.485Z,7.78
2022-09-20T19:08:34.428Z,8.13
2022-09-20T19:11:06.045Z,7.87
2022-09-20T19:13:42.673Z,7.65
2022-09-20T19:16:21.106Z,8.07
2022-09-20T19:19:16.238Z,8.15
2022-09-20T19:22:00.179Z,8.14
2022-09-20T19:24:40.714Z,8.11
2022-09-20T19:27:32.928Z,8.09
2022-09-20T19:30:04.329Z,8.12
2022-09-20T19:32:36.687Z,8.09
2022-09-20T19:35:21.293Z,7.90
2022-09-20T19:38:06.989Z,7.66
2022-09-20T19:40:43.428Z,7.91
2022-09-20T19:43:53.242Z,7.95
2022-09-20T19:46:38.098Z,8.14
2022-09-20T19:49:15.849Z,8.00
2022-09-20T19:51:59.012Z,7.79
2022-09-20T19:54:30.292Z,8.02
2022-09-20T19:57:03.770Z,8.07
2022-09-20T19:59:32.924Z,7.94
2022-09-20T20:02:05.060Z,7.94
2022-09-20T20:04:47.272Z,7.96
2022-09-20T20:07:25.091Z,8.09
2022-09-20T20:10:01.225Z,7.66
2022-09-20T20:12:37.070Z,7.99
2022-09-20T20:15:30.293Z,7.86
2022-09-20T20:18:16.369Z,7.96
2022-09-20T20:20:47.940Z,7.59
2022-09-20T20:23:55.128Z,7.66
2022-09-20T20:26:33.403Z,7.70
2022-09-20T20:29:01.921Z,7.50
2022-09-20T20:31:36.387Z,7.72
2022-09-20T20:34:07.806Z,7.67
2022-09-20T20:36:39.079Z,7.61
2022-09-20T20:39:08.498Z,7.18
2022-09-20T20:41:44.572Z,7.50
2022-09-20T20:44:19.487Z,6.67
2022-09-20T20:46:51.055Z,7.37
2022-09-20T20:49:22.037Z,7.19
2022-09-20T20:51:55.867Z,7.29
2022-09-20T20:54:27.840Z,7.26
2022-09-20T20:57:08.330Z,6.99
2022-09-20T20:59:37.040Z,7.22
2022-09-20T21:02:08.241Z,7.24
2022-09-20T21:04:38.212Z,6.89
2022-09-20T21:07:11.402Z,6.90
2022-09-20T21:09:39.924Z,7.19
2022-09-20T21:12:14.744Z,6.86
2022-09-20T21:14:49.915Z,7.26
2022-09-20T21:17:20.250Z,7.30
2022-09-20T21:19:50.490Z,7.11
2022-09-20T21:22:22.406Z,6.96
2022-09-20T21:24:53.118Z,7.05
2022-09-20T21:27:29.803Z,7.22
2022-09-20T21:30:01.126Z,7.22
2022-09-20T21:32:32.761Z,7.19
2022-09-20T21:35:03.560Z,6.75
2022-09-20T21:37:31.973Z,7.13
2022-09-20T21:40:06.404Z,7.03
2022-09-20T21:42:39.320Z,6.53
2022-09-20T21:45:13.375Z,7.03
2022-09-20T21:47:44.872Z,7.01
2022-09-20T21:50:18.315Z,7.00
2022-09-20T21:52:48.591Z,6.96
2022-09-20T21:55:19.325Z,6.95
2022-09-20T21:57:54.250Z,6.46
2022-09-20T22:00:22.944Z,6.67
2022-09-20T22:02:59.048Z,6.71
2022-09-20T22:05:34.555Z,6.42
2022-09-20T22:08:09.027Z,6.08
2022-09-20T22:10:39.406Z,6.74
2022-09-20T22:13:16.071Z,6.43
2022-09-20T22:15:44.612Z,6.64
2022-09-20T22:18:13.066Z,6.72
2022-09-20T22:20:43.905Z,6.58
2022-09-20T22:23:19.225Z,6.63
2022-09-20T22:25:52.342Z,6.35
2022-09-20T22:28:22.419Z,6.57
2022-09-20T22:30:56.391Z,6.56
2022-09-20T22:33:29.209Z,6.56
2022-09-20T22:35:59.458Z,6.54
2022-09-20T22:38:29.522Z,6.53
2022-09-20T22:41:01.579Z,6.43
2022-09-20T22:43:38.222Z,6.17
2022-09-20T22:46:12.642Z,6.50
2022-09-20T22:48:43.105Z,6.17
2022-09-20T22:51:17.852Z,6.36
2022-09-20T22:53:48.797Z,6.41
2022-09-20T22:56:21.516Z,6.37
2022-09-20T22:58:57.190Z,6.34
2022-09-20T23:01:41.733Z,5.92
2022-09-20T23:04:15.276Z,6.08
2022-09-20T23:06:54.657Z,6.07
2022-09-20T23:09:25.780Z,6.18
2022-09-20T23:12:00.221Z,6.05
2022-09-20T23:14:32.780Z,5.76
2022-09-20T23:17:03.193Z,5.67
2022-09-20T23:19:34.957Z,5.93
2022-09-20T23:22:03.316Z,5.98
2022-09-20T23:24:36.664Z,6.09
2022-09-20T23:27:05.362Z,6.17
2022-09-20T23:29:38.108Z,6.17
2022-09-20T23:32:11.327Z,6.04
2022-09-20T23:34:39.679Z,6.01
2022-09-20T23:37:08.207Z,6.17
2022-09-20T23:39:36.778Z,6.19
2022-09-20T23:42:08.380Z,6.30
2022-09-20T23:44:42.148Z,6.28
2022-09-20T23:47:12.413Z,6.33
2022-09-20T23:49:45.614Z,6.11
2022-09-20T23:52:13.941Z,6.22
2022-09-20T23:54:42.489Z,6.13
2022-09-20T23:57:11.131Z,6.21
2022-09-20T23:59:46.888Z,6.29
